Time;durP1;ratioP1;P1;durP2;ratioP2;P2;SDS_P1;SDS_P2;PMS_P1;PMS_P2;Temp;Humidity;BMP_temperature;BMP_pressure;BME280_temperature;BME280_humidity;BME280_pressure;Samples;Min_cycle;Max_cycle;Signal;HPM_P1;HPM_P2
2021/09/20 00:00:00;;;;;;;9.87;5.93;;;;;;;10.81;100.00;93813.09;5115950;28;20209;-76
2021/09/20 00:02:26;;;;;;;8.83;5.77;;;;;;;10.84;100.00;93809.28;5115619;28;20541;-76
2021/09/20 00:04:54;;;;;;;12.30;6.97;;;;;;;10.80;100.00;93810.69;5116013;28;20193;-77
2021/09/20 00:07:20;;;;;;;11.97;5.87;;;;;;;10.85;100.00;93811.69;5116043;28;20231;-77
2021/09/20 00:09:47;;;;;;;9.27;5.70;;;;;;;10.86;100.00;93808.09;5115868;28;20567;-77
2021/09/20 00:12:14;;;;;;;8.17;5.10;;;;;;;10.87;100.00;93814.09;5115640;28;20247;-77
2021/09/20 00:14:40;;;;;;;11.50;6.60;;;;;;;10.83;100.00;93815.53;5115609;28;20237;-77
2021/09/20 00:17:07;;;;;;;9.33;5.80;;;;;;;10.87;100.00;93814.09;5115839;28;20197;-77
2021/09/20 00:19:33;;;;;;;12.27;5.87;;;;;;;10.87;100.00;93812.28;5115616;28;20210;-77
2021/09/20 00:22:01;;;;;;;8.05;4.90;;;;;;;10.91;100.00;93816.13;5115705;28;20206;-77
2021/09/20 00:24:27;;;;;;;7.23;5.07;;;;;;;10.93;100.00;93805.47;5115617;28;20209;-78
2021/09/20 00:26:54;;;;;;;8.17;5.17;;;;;;;10.92;100.00;93816.91;5115186;28;20683;-79
2021/09/20 00:29:20;;;;;;;7.07;4.80;;;;;;;10.86;100.00;93812.50;5115703;28;20220;-79
2021/09/20 00:31:47;;;;;;;8.07;4.60;;;;;;;10.85;100.00;93816.13;5115385;28;20720;-78
2021/09/20 00:34:13;;;;;;;6.50;4.30;;;;;;;10.87;100.00;93811.50;5115328;28;20583;-79
2021/09/20 00:36:40;;;;;;;10.13;4.40;;;;;;;11.01;100.00;93815.72;5114529;28;20205;-79
2021/09/20 00:39:07;;;;;;;6.63;4.60;;;;;;;11.01;100.00;93815.72;5115473;28;20198;-79
2021/09/20 00:41:34;;;;;;;6.85;4.07;;;;;;;11.01;100.00;93820.94;5115070;28;20208;-79
2021/09/20 00:44:02;;;;;;;7.33;3.83;;;;;;;11.04;100.00;93809.25;5115387;28;20205;-78
2021/09/20 00:46:28;;;;;;;6.82;4.30;;;;;;;10.99;100.00;93816.91;5114606;28;20529;-78
2021/09/20 00:48:55;;;;;;;5.67;3.50;;;;;;;11.03;100.00;93818.91;5115139;28;20598;-78
2021/09/20 00:51:21;;;;;;;4.60;3.37;;;;;;;11.05;100.00;93813.50;5115096;28;20205;-78
2021/09/20 00:53:48;;;;;;;7.47;3.17;;;;;;;11.01;100.00;93817.53;5114963;28;20274;-79
2021/09/20 00:56:16;;;;;;;5.03;3.10;;;;;;;10.99;100.00;93822.97;5114892;28;20656;-78
2021/09/20 00:58:42;;;;;;;5.87;3.60;;;;;;;10.97;100.00;93816.31;5115094;28;20201;-78
2021/09/20 01:01:09;;;;;;;4.23;2.80;;;;;;;10.92;100.00;93814.28;5115055;28;20201;-78
2021/09/20 01:03:35;;;;;;;5.43;3.40;;;;;;;10.90;100.00;93818.94;5114890;28;20198;-78
2021/09/20 01:06:02;;;;;;;3.67;2.43;;;;;;;10.91;100.00;93825.78;5114869;28;20287;-78
2021/09/20 01:08:28;;;;;;;4.40;3.10;;;;;;;10.95;100.00;93824.34;5114673;28;20208;-77
2021/09/20 01:10:55;;;;;;;4.60;3.13;;;;;;;10.94;100.00;93825.34;5114575;28;20533;-77
2021/09/20 01:13:23;;;;;;;5.37;3.33;;;;;;;10.93;100.00;93832.38;5113904;28;20289;-78
2021/09/20 01:15:49;;;;;;;3.93;2.60;;;;;;;10.93;100.00;93829.78;5114807;28;20201;-77
2021/09/20 01:18:16;;;;;;;3.73;2.67;;;;;;;10.89;100.00;93833.81;5114651;28;20224;-77
2021/09/20 01:20:42;;;;;;;3.10;2.50;;;;;;;10.95;100.00;93831.38;5114502;28;20197;-77
2021/09/20 01:23:10;;;;;;;2.50;2.03;;;;;;;10.94;100.00;93822.72;5114290;28;20213;-77
2021/09/20 01:25:37;;;;;;;4.47;2.70;;;;;;;11.01;100.00;93826.16;5114338;28;20228;-77
2021/09/20 01:28:04;;;;;;;2.87;2.50;;;;;;;10.93;100.00;93821.13;5114260;28;20532;-78
2021/09/20 01:30:31;;;;;;;3.60;2.80;;;;;;;10.90;100.00;93824.16;5114440;28;20205;-76
2021/09/20 01:32:57;;;;;;;3.47;2.60;;;;;;;10.88;100.00;93829.56;5114346;28;20221;-76
2021/09/20 01:35:25;;;;;;;3.53;2.53;;;;;;;10.92;100.00;93824.75;5114198;28;20251;-77
2021/09/20 01:37:51;;;;;;;3.27;2.53;;;;;;;10.96;100.00;93825.97;5114003;28;20213;-77
2021/09/20 01:40:20;;;;;;;3.60;2.77;;;;;;;10.95;100.00;93829.56;5114332;28;20204;-77
2021/09/20 01:42:47;;;;;;;4.83;2.33;;;;;;;10.97;100.00;93829.38;5114220;28;20204;-77
2021/09/20 01:45:15;;;;;;;3.20;2.63;;;;;;;11.01;100.00;93828.78;5113595;28;20563;-76
2021/09/20 01:47:43;;;;;;;5.20;3.07;;;;;;;11.02;100.00;93826.97;5114001;28;20583;-77
2021/09/20 01:50:11;;;;;;;4.83;2.93;;;;;;;10.98;100.00;93826.56;5114074;28;20202;-76
2021/09/20 01:52:38;;;;;;;5.73;3.10;;;;;;;10.92;100.00;93833.41;5114092;28;20201;-76
2021/09/20 01:55:07;;;;;;;6.00;3.67;;;;;;;10.88;100.00;93831.38;5113976;28;20615;-76
2021/09/20 01:57:35;;;;;;;4.23;2.90;;;;;;;10.85;100.00;93831.78;5113845;28;20201;-76
2021/09/20 02:00:02;;;;;;;4.70;2.83;;;;;;;10.83;100.00;93829.38;5113912;28;20602;-76
2021/09/20 02:02:28;;;;;;;5.63;3.27;;;;;;;10.80;100.00;93828.97;5113682;28;20201;-76
2021/09/20 02:04:55;;;;;;;4.60;2.50;;;;;;;10.78;100.00;93828.38;5113499;28;20201;-77
2021/09/20 02:07:21;;;;;;;5.10;2.77;;;;;;;10.76;100.00;93827.75;5113604;28;20660;-76
2021/09/20 02:09:47;;;;;;;3.40;2.37;;;;;;;10.79;100.00;93832.56;5113756;28;20209;-76
2021/09/20 02:12:14;;;;;;;4.23;2.70;;;;;;;10.83;100.00;93831.97;5113770;28;20193;-76
2021/09/20 02:14:42;;;;;;;4.80;2.70;;;;;;;10.80;100.00;93834.19;5113451;28;20232;-76
2021/09/20 02:17:08;;;;;;;3.33;1.97;;;;;;;10.82;100.00;93821.72;5113586;28;20204;-76
2021/09/20 02:19:35;;;;;;;2.47;1.83;;;;;;;10.82;100.00;93827.75;5113436;28;20670;-76
2021/09/20 02:22:02;;;;;;;3.17;2.03;;;;;;;10.80;100.00;93829.75;5113331;28;20209;-76
2021/09/20 02:24:28;;;;;;;3.83;1.90;;;;;;;10.82;100.00;93827.75;5113446;28;20205;-76
2021/09/20 02:26:55;;;;;;;3.50;1.70;;;;;;;10.85;100.00;93832.59;5113130;28;20229;-76
2021/09/20 02:29:21;;;;;;;2.47;1.57;;;;;;;10.86;100.00;93822.97;5113470;28;20594;-76
2021/09/20 02:31:49;;;;;;;1.90;1.40;;;;;;;10.89;100.00;93823.34;5113361;28;20205;-76
2021/09/20 02:34:16;;;;;;;1.47;1.03;;;;;;;10.93;100.00;93834.19;5112972;28;20232;-76
2021/09/20 02:36:43;;;;;;;1.48;1.20;;;;;;;10.95;100.00;93826.16;5113447;28;20201;-76
2021/09/20 02:39:09;;;;;;;2.37;1.40;;;;;;;10.95;100.00;93832.19;5113513;28;20204;-76
2021/09/20 02:41:35;;;;;;;1.35;0.80;;;;;;;10.97;100.00;93830.16;5113306;28;20267;-76
2021/09/20 02:44:02;;;;;;;1.00;0.70;;;;;;;10.93;100.00;93827.16;5113300;28;20197;-76
2021/09/20 02:46:28;;;;;;;0.80;0.80;;;;;;;10.92;100.00;93828.19;5113182;28;20201;-76
2021/09/20 02:48:57;;;;;;;2.70;0.77;;;;;;;10.94;100.00;93827.94;5113524;28;20193;-76
2021/09/20 02:51:23;;;;;;;0.50;0.50;;;;;;;10.92;100.00;93827.34;5113175;28;20197;-76
2021/09/20 02:53:50;;;;;;;0.50;0.50;;;;;;;10.86;100.00;93831.59;5113217;28;20265;-76
2021/09/20 02:56:16;;;;;;;0.77;0.60;;;;;;;10.89;100.00;93820.75;5113061;28;20201;-76
2021/09/20 02:58:43;;;;;;;1.17;0.60;;;;;;;10.87;100.00;93832.38;5113229;28;20209;-76
2021/09/20 03:01:09;;;;;;;1.75;0.60;;;;;;;10.88;100.00;93826.16;5113039;28;20246;-76
2021/09/20 03:03:35;;;;;;;0.55;0.50;;;;;;;10.89;100.00;93832.97;5113263;28;20209;-76
2021/09/20 03:06:03;;;;;;;1.37;0.67;;;;;;;10.81;100.00;93827.94;5113223;28;20197;-76
2021/09/20 03:08:30;;;;;;;1.43;1.10;;;;;;;10.74;100.00;93830.56;5113028;28;20655;-77
2021/09/20 03:10:56;;;;;;;1.20;1.00;;;;;;;10.74;100.00;93831.38;5112934;28;20664;-77
2021/09/20 03:13:23;;;;;;;1.47;1.17;;;;;;;10.72;100.00;93837.78;5112956;28;20229;-76
2021/09/20 03:15:50;;;;;;;1.00;0.80;;;;;;;10.69;100.00;93832.97;5112961;28;20209;-76
2021/09/20 03:18:16;;;;;;;1.50;1.30;;;;;;;10.64;100.00;93836.19;5113181;28;20201;-76
2021/09/20 03:20:43;;;;;;;1.53;1.27;;;;;;;10.69;100.00;93832.97;5113090;28;20290;-76
2021/09/20 03:23:11;;;;;;;1.60;1.30;;;;;;;10.70;100.00;93832.78;5113125;28;20203;-76
2021/09/20 03:25:37;;;;;;;1.40;1.00;;;;;;;10.70;100.00;93834.59;5112780;28;20229;-76
2021/09/20 03:28:04;;;;;;;1.17;1.07;;;;;;;10.78;100.00;93837.00;5112754;28;20659;-76
2021/09/20 03:30:30;;;;;;;1.47;1.20;;;;;;;10.79;100.00;93833.41;5112785;28;20553;-76
2021/09/20 03:32:57;;;;;;;1.90;1.20;;;;;;;10.74;100.00;93841.00;5112975;28;20202;-76
2021/09/20 03:35:23;;;;;;;2.07;1.60;;;;;;;10.72;100.00;93843.84;5112856;28;20221;-76
2021/09/20 03:37:50;;;;;;;1.57;1.27;;;;;;;10.74;100.00;93836.59;5116003;28;20204;-77
2021/09/20 03:40:19;;;;;;;2.40;1.27;;;;;;;10.72;100.00;93843.84;5116474;28;20205;-76
2021/09/20 03:42:45;;;;;;;2.08;1.38;;;;;;;10.72;100.00;93843.84;5116282;28;20202;-76
2021/09/20 03:45:12;;;;;;;2.77;1.60;;;;;;;10.71;100.00;93838.81;5116556;28;20193;-76
2021/09/20 03:47:39;;;;;;;2.33;1.60;;;;;;;10.77;100.00;93839.81;5116240;28;20198;-77
2021/09/20 03:50:08;;;;;;;3.23;1.60;;;;;;;10.78;100.00;93836.22;5116473;28;20226;-77
2021/09/20 03:52:35;;;;;;;2.83;2.00;;;;;;;10.85;100.00;93839.63;5116302;28;20194;-77
2021/09/20 03:55:01;;;;;;;2.53;1.73;;;;;;;10.92;100.00;93837.81;5116079;28;20617;-77
2021/09/20 03:57:29;;;;;;;3.50;1.67;;;;;;;10.89;100.00;93833.81;5116008;28;20251;-76
2021/09/20 03:59:55;;;;;;;2.83;1.80;;;;;;;10.93;100.00;93837.59;5116268;28;20194;-76
2021/09/20 04:02:22;;;;;;;3.17;2.27;;;;;;;10.93;100.00;93835.00;5116129;28;20205;-76
2021/09/20 04:04:48;;;;;;;3.87;2.50;;;;;;;10.94;100.00;93830.56;5116099;28;20586;-76
2021/09/20 04:07:15;;;;;;;4.33;2.50;;;;;;;10.89;100.00;93836.41;5115837;28;20205;-76
2021/09/20 04:09:42;;;;;;;3.27;2.37;;;;;;;10.84;100.00;93844.06;5115739;28;20658;-76
2021/09/20 04:12:09;;;;;;;5.70;2.87;;;;;;;10.82;100.00;93843.41;5115716;28;20229;-76
2021/09/20 04:14:38;;;;;;;4.25;2.67;;;;;;;10.84;100.00;93843.22;5115555;28;20228;-76
2021/09/20 04:17:05;;;;;;;6.30;3.20;;;;;;;10.85;100.00;93840.41;5115837;28;20236;-76
2021/09/20 04:19:32;;;;;;;6.77;3.23;;;;;;;10.80;100.00;93842.81;5115750;28;20201;-76
2021/09/20 04:21:58;;;;;;;13.90;4.00;;;;;;;10.74;100.00;93847.06;5115747;28;20194;-77
2021/09/20 04:24:25;;;;;;;7.40;3.83;;;;;;;10.82;100.00;93848.66;5115446;28;20528;-76
2021/09/20 04:26:51;;;;;;;15.83;4.50;;;;;;;10.88;100.00;93854.91;5115365;28;20286;-76
2021/09/20 04:29:18;;;;;;;5.47;3.73;;;;;;;10.83;100.00;93849.47;5115756;28;20208;-77
2021/09/20 04:31:46;;;;;;;6.77;3.77;;;;;;;10.80;100.00;93855.09;5115606;28;20198;-76
2021/09/20 04:34:13;;;;;;;10.60;4.43;;;;;;;10.77;100.00;93856.28;5115484;28;20221;-77
2021/09/20 04:36:39;;;;;;;6.40;4.13;;;;;;;10.74;100.00;93860.09;5115391;28;20220;-77
2021/09/20 04:39:05;;;;;;;9.20;4.07;;;;;;;10.70;100.00;93858.09;5115138;28;20201;-76
2021/09/20 04:41:32;;;;;;;9.07;4.37;;;;;;;10.70;100.00;93858.09;5115531;28;20201;-76
2021/09/20 04:43:58;;;;;;;9.30;4.70;;;;;;;10.67;100.00;93854.06;5115415;28;20205;-76
2021/09/20 04:46:25;;;;;;;13.07;4.97;;;;;;;10.67;100.00;93866.31;5115070;28;20193;-77
2021/09/20 04:48:52;;;;;;;8.60;4.50;;;;;;;10.68;100.00;93860.91;5115237;28;20201;-76
2021/09/20 04:51:19;;;;;;;8.33;4.10;;;;;;;10.73;100.00;93870.75;5115016;28;20201;-76
2021/09/20 04:53:45;;;;;;;8.67;4.43;;;;;;;10.68;100.00;93866.13;5114890;28;20655;-77
2021/09/20 04:56:13;;;;;;;9.00;4.90;;;;;;;10.71;100.00;93870.94;5115281;28;20205;-76
2021/09/20 04:58:40;;;;;;;7.83;4.50;;;;;;;10.75;100.00;93871.34;5115135;28;20229;-77
2021/09/20 05:01:06;;;;;;;12.80;5.67;;;;;;;10.78;100.00;93873.56;5114968;28;20205;-76
2021/09/20 05:03:33;;;;;;;12.23;5.87;;;;;;;10.80;100.00;93878.59;5114754;28;20193;-76
2021/09/20 05:06:00;;;;;;;11.17;5.30;;;;;;;10.77;100.00;93877.16;5114793;28;20205;-76
2021/09/20 05:08:27;;;;;;;10.23;5.00;;;;;;;10.78;100.00;93872.78;5114652;28;20227;-77
2021/09/20 05:10:53;;;;;;;11.07;5.17;;;;;;;10.79;100.00;93874.38;5114892;28;20246;-77
2021/09/20 05:13:20;;;;;;;9.93;5.37;;;;;;;10.79;100.00;93877.78;5114854;28;20202;-76
2021/09/20 05:15:46;;;;;;;11.33;5.47;;;;;;;10.82;100.00;93874.75;5114536;28;20278;-77
2021/09/20 05:18:14;;;;;;;11.23;5.47;;;;;;;10.88;100.00;93881.00;5114653;28;20220;-76
2021/09/20 05:20:40;;;;;;;9.80;5.00;;;;;;;10.89;100.00;93877.38;5114443;28;20201;-77
2021/09/20 05:23:08;;;;;;;10.10;5.23;;;;;;;10.86;100.00;93883.03;5114710;28;20242;-76
2021/09/20 05:25:35;;;;;;;9.17;5.43;;;;;;;10.85;100.00;93884.03;5114108;28;20237;-76
2021/09/20 05:28:02;;;;;;;8.50;4.77;;;;;;;10.86;100.00;93877.81;5114358;28;20556;-77
2021/09/20 05:30:28;;;;;;;10.18;5.40;;;;;;;10.88;100.00;93881.00;5114397;28;20197;-77
2021/09/20 05:32:55;;;;;;;12.95;6.05;;;;;;;10.90;100.00;93881.63;5114514;28;20212;-76
2021/09/20 05:35:21;;;;;;;12.30;5.90;;;;;;;10.90;100.00;93886.84;5114078;28;20228;-77
2021/09/20 05:37:48;;;;;;;11.57;5.97;;;;;;;10.92;100.00;93882.22;5114265;28;20201;-76
2021/09/20 05:40:17;;;;;;;10.23;5.45;;;;;;;10.96;100.00;93880.00;5113738;28;20284;-77
2021/09/20 05:42:44;;;;;;;10.23;5.17;;;;;;;10.98;100.00;93883.25;5114248;28;20572;-76
2021/09/20 05:45:11;;;;;;;9.45;4.57;;;;;;;11.03;100.00;93886.84;5114204;28;20209;-76
2021/09/20 05:47:39;;;;;;;15.85;6.45;;;;;;;10.99;100.00;93885.66;5114090;28;20193;-76
2021/09/20 05:50:08;;;;;;;11.77;6.47;;;;;;;11.01;100.00;93888.88;5114167;28;20216;-77
2021/09/20 05:52:35;;;;;;;13.75;6.70;;;;;;;11.03;100.00;93886.84;5114086;28;20209;-76
2021/09/20 05:55:01;;;;;;;12.53;6.13;;;;;;;11.07;100.00;93887.25;5113915;28;20221;-76
2021/09/20 05:57:29;;;;;;;14.40;6.68;;;;;;;11.15;100.00;93889.66;5113864;28;20206;-76
2021/09/20 05:59:56;;;;;;;13.37;5.83;;;;;;;11.26;100.00;93885.66;5113459;28;20571;-76
2021/09/20 06:02:22;;;;;;;10.13;5.63;;;;;;;11.34;100.00;93893.28;5113645;28;20208;-76
2021/09/20 06:04:48;;;;;;;10.40;5.40;;;;;;;11.22;100.00;93895.69;5113967;28;20197;-77
2021/09/20 06:07:15;;;;;;;8.60;5.13;;;;;;;11.18;100.00;93893.69;5113901;28;20205;-76
2021/09/20 06:09:41;;;;;;;8.23;4.70;;;;;;;11.22;100.00;93889.66;5113634;28;20675;-76
2021/09/20 06:12:08;;;;;;;6.80;4.40;;;;;;;11.24;100.00;93898.09;5113636;28;20206;-76
2021/09/20 06:14:35;;;;;;;9.55;5.30;;;;;;;11.32;100.00;93897.91;5113559;28;20286;-76
2021/09/20 06:17:02;;;;;;;8.70;4.78;;;;;;;11.38;100.00;93902.31;5113575;28;20212;-77
2021/09/20 06:19:29;;;;;;;7.83;4.73;;;;;;;11.41;100.00;93904.53;5113784;28;20197;-77
2021/09/20 06:21:56;;;;;;;8.98;5.10;;;;;;;11.50;100.00;93901.72;5113662;28;20219;-77
2021/09/20 06:24:23;;;;;;;11.20;5.45;;;;;;;11.43;100.00;93904.34;5113648;28;20201;-77
2021/09/20 06:26:49;;;;;;;11.77;6.30;;;;;;;11.35;100.00;93897.50;5113153;28;20721;-76
2021/09/20 06:29:15;;;;;;;15.40;6.93;;;;;;;11.43;100.00;93907.75;5113430;28;20201;-77
2021/09/20 06:31:43;;;;;;;12.18;6.53;;;;;;;11.42;100.00;93902.72;5113758;28;20265;-77
2021/09/20 06:34:10;;;;;;;17.30;7.45;;;;;;;11.45;100.00;93903.13;5113435;28;20574;-77
2021/09/20 06:36:37;;;;;;;12.88;6.47;;;;;;;11.47;100.00;93903.75;5113502;28;20201;-76
2021/09/20 06:39:04;;;;;;;10.10;5.68;;;;;;;11.64;100.00;93901.50;5113450;28;20197;-76
2021/09/20 06:41:30;;;;;;;10.50;5.88;;;;;;;11.59;100.00;93905.72;5113328;28;20193;-76
2021/09/20 06:43:57;;;;;;;10.70;5.95;;;;;;;11.51;100.00;93901.53;5113173;28;20222;-77
2021/09/20 06:46:23;;;;;;;8.27;4.97;;;;;;;11.52;100.00;93905.72;5113399;28;20204;-77
2021/09/20 06:48:51;;;;;;;8.55;5.28;;;;;;;11.63;100.00;93907.72;5113469;28;20679;-77
2021/09/20 06:51:18;;;;;;;9.25;5.45;;;;;;;11.69;100.00;93907.91;5113246;28;20201;-77
2021/09/20 06:53:44;;;;;;;7.70;4.68;;;;;;;12.12;100.00;93908.25;5113387;28;20205;-77
2021/09/20 06:56:11;;;;;;;5.70;3.95;;;;;;;12.02;100.00;93910.50;5113285;28;20225;-77
2021/09/20 06:58:37;;;;;;;6.10;4.05;;;;;;;11.94;100.00;93914.16;5113023;28;20201;-77
2021/09/20 07:01:03;;;;;;;6.22;4.28;;;;;;;12.22;100.00;93915.66;5113033;28;20652;-77
2021/09/20 07:03:30;;;;;;;6.70;4.40;;;;;;;12.58;100.00;93909.06;5113226;28;20206;-77
2021/09/20 07:05:58;;;;;;;6.55;3.92;;;;;;;12.72;100.00;93908.00;5113126;28;20205;-77
2021/09/20 07:08:24;;;;;;;4.90;3.58;;;;;;;12.55;100.00;93910.28;5113107;28;20197;-78
2021/09/20 07:10:50;;;;;;;5.97;3.60;;;;;;;12.51;100.00;93909.09;5113713;28;20205;-77
2021/09/20 07:13:17;;;;;;;8.80;4.68;;;;;;;12.72;100.00;93902.78;5117024;28;20208;-77
2021/09/20 07:15:43;;;;;;;7.43;4.15;;;;;;;13.09;100.00;93902.09;5116827;28;20229;-77
2021/09/20 07:18:09;;;;;;;7.53;3.83;;;;;;;13.35;100.00;93905.59;5117042;28;20268;-77
2021/09/20 07:20:36;;;;;;;5.82;3.60;;;;;;;13.43;100.00;93907.94;5116934;28;20209;-77
2021/09/20 07:23:05;;;;;;;5.45;3.30;;;;;;;13.68;100.00;93905.31;5116849;28;20693;-77
2021/09/20 07:25:31;;;;;;;4.13;3.33;;;;;;;13.76;100.00;93902.41;5115253;28;20439;-77
2021/09/20 07:27:58;;;;;;;4.85;3.03;;;;;;;13.93;100.00;93899.22;5116669;28;20805;-77
2021/09/20 07:30:24;;;;;;;4.85;3.05;;;;;;;13.54;100.00;93906.44;5116796;28;20209;-77
2021/09/20 07:32:52;;;;;;;4.22;3.22;;;;;;;13.18;100.00;93911.34;5116708;28;20203;-77
2021/09/20 07:35:19;;;;;;;3.78;3.00;;;;;;;13.27;100.00;93911.88;5116580;28;20651;-77
2021/09/20 07:37:48;;;;;;;3.75;2.92;;;;;;;13.30;100.00;93912.22;5116471;28;20213;-77
2021/09/20 07:40:16;;;;;;;5.70;3.75;;;;;;;13.40;100.00;93911.78;5116432;28;20250;-77
2021/09/20 07:42:43;;;;;;;4.88;3.20;;;;;;;13.29;100.00;93910.66;5116047;28;20197;-78
2021/09/20 07:45:11;;;;;;;5.18;4.07;;;;;;;13.22;100.00;93920.38;5116560;28;20208;-77
2021/09/20 07:47:38;;;;;;;4.35;3.10;;;;;;;13.57;100.00;93922.53;5116374;28;20205;-77
2021/09/20 07:50:06;;;;;;;4.50;3.45;;;;;;;13.95;100.00;93918.97;5116343;28;20254;-77
2021/09/20 07:52:33;;;;;;;6.45;3.63;;;;;;;13.91;100.00;93920.44;5116356;28;20659;-77
2021/09/20 07:54:59;;;;;;;5.78;3.30;;;;;;;13.98;100.00;93920.38;5116015;28;20229;-77
2021/09/20 07:57:28;;;;;;;5.25;3.63;;;;;;;13.91;100.00;93922.25;5116254;28;20200;-77
2021/09/20 07:59:54;;;;;;;4.55;3.40;;;;;;;13.78;100.00;93923.19;5116294;28;20196;-77
2021/09/20 08:02:21;;;;;;;3.67;3.13;;;;;;;14.02;100.00;93919.72;5116091;28;20205;-79
2021/09/20 08:04:47;;;;;;;4.53;3.22;;;;;;;14.14;100.00;93927.66;5115968;28;20206;-79
2021/09/20 08:07:14;;;;;;;4.60;3.60;;;;;;;14.24;100.00;93924.53;5115958;28;20194;-78
2021/09/20 08:09:40;;;;;;;7.38;2.97;;;;;;;14.52;100.00;93933.69;5115873;28;20259;-78
2021/09/20 08:12:07;;;;;;;4.22;3.05;;;;;;;14.60;100.00;93930.81;5115765;28;20198;-77
2021/09/20 08:14:35;;;;;;;5.22;3.75;;;;;;;14.61;100.00;93929.78;5115227;28;20839;-76
2021/09/20 08:17:01;;;;;;;6.80;3.35;;;;;;;14.91;100.00;93932.41;5115741;28;20227;-77
2021/09/20 08:19:28;;;;;;;8.05;3.58;;;;;;;14.11;100.00;93937.81;5115768;28;20206;-77
2021/09/20 08:21:54;;;;;;;7.63;4.40;;;;;;;13.78;100.00;93934.47;5115179;28;20208;-78
2021/09/20 08:24:21;;;;;;;11.77;3.92;;;;;;;13.87;100.00;93942.88;5115792;28;20201;-77
2021/09/20 08:26:47;;;;;;;5.97;4.47;;;;;;;14.23;100.00;93930.81;5115276;28;20230;-77
2021/09/20 08:29:14;;;;;;;4.97;3.97;;;;;;;14.31;100.00;93937.59;5115693;28;20548;-78
2021/09/20 08:31:42;;;;;;;5.78;3.85;;;;;;;14.40;100.00;93938.88;5115436;28;20660;-76
2021/09/20 08:34:08;;;;;;;6.00;4.30;;;;;;;14.58;100.00;93945.97;5115449;28;20224;-77
2021/09/20 08:36:35;;;;;;;5.30;3.72;;;;;;;14.90;100.00;93940.53;5115140;28;20348;-77
2021/09/20 08:39:02;;;;;;;6.82;4.10;;;;;;;14.76;100.00;93943.34;5115406;28;20212;-78
2021/09/20 08:41:29;;;;;;;4.63;3.67;;;;;;;14.84;100.00;93951.94;5115183;28;20578;-77
2021/09/20 08:43:55;;;;;;;17.80;4.85;;;;;;;14.70;100.00;93951.31;5115201;28;20651;-77
2021/09/20 08:46:23;;;;;;;6.28;4.45;;;;;;;14.59;100.00;93947.59;5115258;28;20208;-79
2021/09/20 08:48:52;;;;;;;10.55;4.80;;;;;;;14.43;100.00;93952.38;5115138;28;20209;-77
2021/09/20 08:51:19;;;;;;;5.88;4.05;;;;;;;14.86;100.00;93955.94;5103710;28;20204;-78
2021/09/20 08:53:47;;;;;;;6.45;4.47;;;;;;;15.02;100.00;93962.44;5094762;28;20194;-78
2021/09/20 08:56:14;;;;;;;5.45;3.85;;;;;;;15.08;100.00;93969.41;5094546;28;20226;-78
2021/09/20 08:58:41;;;;;;;5.22;3.80;;;;;;;15.43;100.00;93960.81;5094639;28;20248;-78
2021/09/20 09:01:07;;;;;;;5.80;3.75;;;;;;;15.37;100.00;93961.72;5094406;28;20713;-78
2021/09/20 09:03:34;;;;;;;6.18;4.13;;;;;;;15.32;100.00;93961.59;5094312;28;20209;-78
2021/09/20 09:06:02;;;;;;;7.90;4.10;;;;;;;15.58;100.00;93967.50;5094328;28;20648;-78
2021/09/20 09:08:33;;;;;;;5.70;3.72;;;;;;;15.68;100.00;93971.16;5094404;28;20205;-78
2021/09/20 09:11:03;;;;;;;5.38;3.70;;;;;;;15.63;100.00;93968.41;5094417;28;20198;-78
2021/09/20 09:13:36;;;;;;;6.10;4.10;;;;;;;14.94;100.00;93975.88;5103412;28;20192;-77
2021/09/20 09:16:13;;;;;;;5.07;3.67;;;;;;;15.43;100.00;93968.69;5114356;28;20229;-78
2021/09/20 09:18:59;;;;;;;4.88;3.50;;;;;;;15.78;100.00;93969.81;5114602;28;20287;-78
2021/09/20 09:21:30;;;;;;;5.55;3.50;;;;;;;15.85;100.00;93975.78;5114512;28;20201;-78
2021/09/20 09:24:03;;;;;;;5.97;3.33;;;;;;;15.97;100.00;93975.78;5113248;28;20660;-78
2021/09/20 09:26:29;;;;;;;4.55;3.60;;;;;;;15.90;100.00;93973.25;5113759;28;20225;-78
2021/09/20 09:29:07;;;;;;;7.90;4.75;;;;;;;15.57;100.00;93968.50;5114357;28;20197;-78
2021/09/20 09:31:35;;;;;;;8.70;3.60;;;;;;;15.79;100.00;93977.50;5114226;28;20193;-78
2021/09/20 09:34:14;;;;;;;5.07;3.50;;;;;;;16.37;100.00;93981.16;5113445;28;20628;-78
2021/09/20 09:36:43;;;;;;;4.68;3.38;;;;;;;16.96;100.00;93982.91;5113946;28;20240;-79
2021/09/20 09:39:10;;;;;;;5.18;3.38;;;;;;;17.15;100.00;93975.59;5113372;28;20205;-78
2021/09/20 09:41:38;;;;;;;4.28;3.30;;;;;;;16.86;100.00;93978.22;5114073;28;20193;-78
2021/09/20 09:44:06;;;;;;;5.03;3.80;;;;;;;16.77;100.00;93983.03;5114183;28;20205;-78
2021/09/20 09:46:40;;;;;;;5.68;3.88;;;;;;;16.48;100.00;93984.81;5114023;28;20220;-77
2021/09/20 09:49:14;;;;;;;5.57;4.32;;;;;;;16.16;100.00;93984.38;5112753;28;20431;-77
2021/09/20 09:51:56;;;;;;;5.90;4.03;;;;;;;16.19;100.00;93978.66;5113743;28;20205;-78
2021/09/20 09:54:26;;;;;;;6.30;3.70;;;;;;;16.27;100.00;93987.00;5113986;28;20267;-77
2021/09/20 09:57:11;;;;;;;5.20;3.63;;;;;;;15.56;100.00;93980.06;5113878;28;20263;-78
2021/09/20 09:59:38;;;;;;;7.35;4.13;;;;;;;15.14;100.00;93978.25;5113823;28;20261;-77
2021/09/20 10:02:16;;;;;;;6.43;3.55;;;;;;;15.10;100.00;93987.59;5113878;28;20201;-77
2021/09/20 10:04:52;;;;;;;6.95;4.38;;;;;;;15.04;100.00;93978.78;5113517;28;20236;-78
2021/09/20 10:07:27;;;;;;;7.63;4.38;;;;;;;15.39;100.00;93982.53;5113725;28;20608;-78
2021/09/20 10:09:55;;;;;;;5.95;4.32;;;;;;;15.29;100.00;93980.47;5113751;28;20201;-76
2021/09/20 10:12:27;;;;;;;7.82;4.90;;;;;;;15.24;100.00;93982.94;5109774;28;20255;-77
2021/09/20 10:14:56;;;;;;;7.57;4.75;;;;;;;15.35;100.00;93980.38;5092909;28;20202;-76
2021/09/20 10:17:23;;;;;;;6.28;4.50;;;;;;;15.36;100.00;93976.69;5110835;28;20667;-76
2021/09/20 10:19:51;;;;;;;6.30;4.25;;;;;;;15.64;100.00;93971.84;5113539;28;20274;-77
2021/09/20 10:22:19;;;;;;;6.35;4.55;;;;;;;15.66;100.00;93973.22;5113375;28;20544;-77
2021/09/20 10:24:48;;;;;;;7.20;5.20;;;;;;;15.66;100.00;93973.22;5113278;28;20197;-78
2021/09/20 10:27:18;;;;;;;9.25;4.10;;;;;;;15.72;100.00;93972.31;5113197;28;20236;-78
2021/09/20 10:29:49;;;;;;;7.65;4.60;;;;;;;15.87;100.00;93976.34;5113503;28;20201;-78
2021/09/20 10:32:16;;;;;;;7.18;4.70;;;;;;;15.88;100.00;93978.75;5113441;28;20273;-78
2021/09/20 10:34:42;;;;;;;7.28;4.57;;;;;;;16.02;100.00;93973.25;5113348;28;20194;-77
2021/09/20 10:37:12;;;;;;;6.05;4.43;;;;;;;15.93;100.00;93972.03;5113103;28;20691;-77
2021/09/20 10:39:55;;;;;;;5.18;4.22;;;;;;;16.00;100.00;93970.84;5113122;28;20197;-76
2021/09/20 10:42:52;;;;;;;7.35;4.38;;;;;;;16.48;100.00;93973.47;5113016;28;20201;-77
2021/09/20 10:45:46;;;;;;;6.53;3.90;;;;;;;16.81;100.00;93967.53;5110757;28;20202;-78
2021/09/20 10:48:41;;;;;;;6.13;4.20;;;;;;;16.70;100.00;93973.66;5096792;28;20726;-77
2021/09/20 10:51:25;;;;;;;4.60;3.95;;;;;;;16.44;100.00;93965.22;5100256;28;20253;-78
2021/09/20 10:54:15;;;;;;;6.03;3.72;;;;;;;16.78;100.00;93970.66;5117244;28;20674;-77
2021/09/20 10:56:43;;;;;;;4.47;3.15;;;;;;;17.28;100.00;93975.28;5117070;28;20225;-77
2021/09/20 10:59:30;;;;;;;5.03;3.95;;;;;;;16.83;100.00;93968.09;5117201;28;20647;-76
2021/09/20 11:02:13;;;;;;;4.40;3.17;;;;;;;16.68;100.00;93981.00;5117209;28;20210;-77
2021/09/20 11:04:41;;;;;;;5.72;4.30;;;;;;;16.20;100.00;93970.50;5117143;28;20208;-77
2021/09/20 11:07:22;;;;;;;5.85;4.25;;;;;;;16.56;100.00;93978.38;5117090;28;20288;-77
2021/09/20 11:09:54;;;;;;;4.65;3.03;;;;;;;16.54;100.00;93980.47;5117204;28;20544;-77
2021/09/20 11:12:24;;;;;;;5.50;3.40;;;;;;;16.56;100.00;93986.28;5116914;28;20201;-78
2021/09/20 11:15:04;;;;;;;4.25;3.03;;;;;;;16.61;100.00;93987.19;5117010;28;20193;-77
2021/09/20 11:17:41;;;;;;;3.92;2.88;;;;;;;16.86;100.00;93978.22;5116562;28;20228;-78
2021/09/20 11:20:18;;;;;;;4.28;3.50;;;;;;;16.66;95.28;93983.88;5117086;28;20201;-78
2021/09/20 11:22:45;;;;;;;5.72;3.17;;;;;;;16.75;95.69;93984.28;5116815;28;20205;-77
2021/09/20 11:25:15;;;;;;;3.80;3.03;;;;;;;17.10;100.00;93978.13;5116424;28;20201;-78
2021/09/20 11:27:45;;;;;;;5.20;2.85;;;;;;;16.74;100.00;93980.88;5116792;28;20293;-77